createdAt,value
2023-03-15T00:02:11.845Z,98977.83
2023-03-15T00:04:45.919Z,98952.57
2023-03-15T00:07:14.345Z,98935.60
2023-03-15T00:09:42.890Z,98926.48
2023-03-15T00:12:15.128Z,98924.61
2023-03-15T00:14:44.638Z,98922.57
2023-03-15T00:17:13.106Z,98923.52
2023-03-15T00:19:50.316Z,98923.52
2023-03-15T00:22:18.803Z,98923.23
2023-03-15T00:24:47.277Z,98925.94
2023-03-15T00:27:16.078Z,98925.98
2023-03-15T00:29:44.542Z,98918.66
2023-03-15T00:32:13.644Z,98918.33
2023-03-15T00:34:49.244Z,98912.30
2023-03-15T00:37:22.411Z,98905.52
2023-03-15T00:39:50.971Z,98895.54
2023-03-15T00:42:19.751Z,98889.94
2023-03-15T00:44:50.930Z,98886.83
2023-03-15T00:47:19.461Z,98888.29
2023-03-15T00:49:51.084Z,98875.07
2023-03-15T00:52:20.178Z,98873.05
2023-03-15T00:54:55.769Z,98875.77
2023-03-15T00:57:24.445Z,98871.29
2023-03-15T00:59:53.460Z,98876.48
2023-03-15T01:02:24.938Z,98888.73
2023-03-15T01:04:53.796Z,98892.30
2023-03-15T01:07:22.693Z,98902.29
2023-03-15T01:09:51.345Z,98900.55
2023-03-15T01:12:20.275Z,98909.02
2023-03-15T01:14:49.539Z,98922.81
2023-03-15T01:17:18.025Z,98933.83
2023-03-15T01:19:46.623Z,98954.65
2023-03-15T01:22:15.183Z,98962.09
2023-03-15T01:24:44.792Z,98967.59
2023-03-15T01:27:13.677Z,98963.48
2023-03-15T01:29:42.605Z,98960.23
2023-03-15T01:32:11.830Z,98953.39
2023-03-15T01:34:43.553Z,98953.42
2023-03-15T01:37:14.841Z,98947.29
2023-03-15T01:39:46.094Z,98951.23
2023-03-15T01:42:17.234Z,98948.46
2023-03-15T01:44:56.828Z,98953.25
2023-03-15T01:47:26.227Z,98961.36
2023-03-15T01:50:06.600Z,98973.71
2023-03-15T01:52:37.713Z,98973.85
2023-03-15T01:55:13.455Z,98978.48
2023-03-15T01:57:57.706Z,98984.02
2023-03-15T02:00:28.018Z,98989.48
2023-03-15T02:03:14.689Z,98990.42
2023-03-15T02:05:47.526Z,98982.53
2023-03-15T02:08:23.213Z,98978.89
2023-03-15T02:10:53.749Z,98978.10
2023-03-15T02:13:24.094Z,98973.70
2023-03-15T02:15:53.819Z,98976.28
2023-03-15T02:18:37.323Z,98969.56
2023-03-15T02:21:19.774Z,98965.13
2023-03-15T02:24:00.042Z,98962.98
2023-03-15T02:26:36.799Z,98961.45
2023-03-15T02:29:05.520Z,98960.81
2023-03-15T02:31:38.371Z,98960.44
2023-03-15T02:34:07.661Z,98959.38
2023-03-15T02:36:36.643Z,98956.60
2023-03-15T02:39:20.163Z,98955.52
2023-03-15T02:41:51.235Z,98954.56
2023-03-15T02:44:30.706Z,98955.83
2023-03-15T02:47:02.473Z,98954.02
2023-03-15T02:49:32.198Z,98958.00
2023-03-15T02:52:01.114Z,98950.55
2023-03-15T02:54:29.806Z,98947.96
2023-03-15T02:56:59.068Z,98948.63
2023-03-15T02:59:28.006Z,98949.36
2023-03-15T03:01:56.607Z,98947.45
2023-03-15T03:04:25.165Z,98952.63
2023-03-15T03:06:53.713Z,98949.11
2023-03-15T03:09:25.120Z,98943.34
2023-03-15T03:11:54.393Z,98939.06
2023-03-15T03:14:24.190Z,98941.20
2023-03-15T03:16:55.411Z,98934.40
2023-03-15T03:19:26.971Z,98929.05
2023-03-15T03:22:00.395Z,98925.73
2023-03-15T03:24:30.230Z,98924.38
2023-03-15T03:26:58.755Z,98921.03
2023-03-15T03:29:29.447Z,98919.16
2023-03-15T03:31:59.121Z,98921.85
2023-03-15T03:34:31.697Z,98917.32
2023-03-15T03:37:00.954Z,98919.23
2023-03-15T03:39:49.558Z,98913.66
2023-03-15T03:42:18.928Z,98912.60
2023-03-15T03:44:47.387Z,98915.52
2023-03-15T03:47:16.355Z,98915.25
2023-03-15T03:49:45.025Z,98910.23
2023-03-15T03:52:17.481Z,98912.61
2023-03-15T03:54:47.770Z,98903.80
2023-03-15T03:57:16.877Z,98902.42
2023-03-15T03:59:45.755Z,98900.30
2023-03-15T04:02:14.414Z,98900.63
2023-03-15T04:04:50.626Z,98904.67
2023-03-15T04:07:21.760Z,98904.92
2023-03-15T04:09:51.389Z,98911.60
2023-03-15T04:12:20.187Z,98906.95
2023-03-15T04:14:49.756Z,98910.29
2023-03-15T04:17:19.864Z,98908.53
2023-03-15T04:19:49.463Z,98912.94
2023-03-15T04:22:24.165Z,98912.70
2023-03-15T04:25:09.583Z,98917.09
2023-03-15T04:27:59.140Z,98916.14
2023-03-15T04:30:48.165Z,98914.71
2023-03-15T04:33:35.697Z,98911.69
2023-03-15T04:36:23.999Z,98918.86
2023-03-15T04:39:07.401Z,98929.38
2023-03-15T04:42:05.811Z,98937.82
2023-03-15T04:45:04.585Z,98944.56
2023-03-15T04:47:45.751Z,98952.88
2023-03-15T04:50:47.310Z,98949.27
2023-03-15T04:53:40.097Z,98942.95
2023-03-15T04:56:20.334Z,98945.21
2023-03-15T04:59:13.010Z,98946.89
2023-03-15T05:02:00.518Z,98947.60
2023-03-15T05:04:37.359Z,98944.02
2023-03-15T05:07:26.253Z,98947.64
2023-03-15T05:10:12.363Z,98944.82
2023-03-15T05:12:53.052Z,98943.27
2023-03-15T05:15:33.340Z,98935.52
2023-03-15T05:18:16.998Z,98917.63
2023-03-15T05:21:21.352Z,98912.59
2023-03-15T05:24:09.226Z,98900.96
2023-03-15T05:26:54.484Z,98885.83
2023-03-15T05:30:04.449Z,98862.80
2023-03-15T05:32:45.072Z,98846.73
2023-03-15T05:35:14.133Z,98822.52
2023-03-15T05:38:01.691Z,98797.27
2023-03-15T05:40:45.647Z,98785.44
2023-03-15T05:43:36.615Z,98779.88
2023-03-15T05:46:18.965Z,98773.45
2023-03-15T05:49:11.119Z,98763.44
2023-03-15T05:51:58.113Z,98760.80
2023-03-15T05:54:42.815Z,98754.86
2023-03-15T05:57:31.709Z,98756.61
2023-03-15T06:00:20.114Z,98754.73
2023-03-15T06:02:51.078Z,98751.63
2023-03-15T06:05:39.837Z,98755.44
2023-03-15T06:08:11.707Z,98754.64
2023-03-15T06:10:44.727Z,98752.21
2023-03-15T06:13:14.505Z,98750.33
2023-03-15T06:15:47.195Z,98757.56
2023-03-15T06:18:19.947Z,98751.46
2023-03-15T06:20:51.627Z,98756.39
2023-03-15T06:23:26.842Z,98771.37
2023-03-15T06:25:55.645Z,98777.77
2023-03-15T06:28:24.281Z,98771.77
2023-03-15T06:31:12.631Z,98790.12
2023-03-15T06:33:50.042Z,98819.99
2023-03-15T06:36:18.885Z,98842.63
2023-03-15T06:38:47.865Z,98840.06
2023-03-15T06:41:16.376Z,98869.02
2023-03-15T06:43:52.376Z,98880.19
2023-03-15T06:46:21.513Z,98902.85
2023-03-15T06:48:50.236Z,98928.86
2023-03-15T06:51:19.742Z,98956.55
2023-03-15T06:53:51.987Z,98960.27
2023-03-15T06:56:21.906Z,98980.90
2023-03-15T06:58:50.801Z,99008.30
2023-03-15T07:01:22.730Z,99057.25
2023-03-15T07:03:52.333Z,99060.63
2023-03-15T07:06:20.826Z,99073.20
2023-03-15T07:08:50.723Z,99087.15
2023-03-15T07:11:19.583Z,99088.41
2023-03-15T07:13:48.059Z,99112.33
2023-03-15T07:16:17.411Z,99122.21
2023-03-15T07:18:47.312Z,99151.19
2023-03-15T07:21:15.896Z,99141.86
2023-03-15T07:23:47.287Z,99141.90
2023-03-15T07:26:16.491Z,99156.59
2023-03-15T07:28:51.953Z,99188.98
2023-03-15T07:31:21.295Z,99227.02
2023-03-15T07:33:50.565Z,99218.20
2023-03-15T07:36:20.444Z,99207.28
2023-03-15T07:38:49.685Z,99219.17
2023-03-15T07:41:18.977Z,99213.64
2023-03-15T07:43:58.645Z,99238.94
2023-03-15T07:46:27.340Z,99243.60
2023-03-15T07:48:56.671Z,99251.75
2023-03-15T07:51:25.404Z,99259.66
2023-03-15T07:54:00.625Z,99253.67
2023-03-15T07:56:29.166Z,99281.09
2023-03-15T07:58:57.656Z,99298.02
2023-03-15T08:01:26.395Z,99310.89
2023-03-15T08:03:55.320Z,99348.67
2023-03-15T08:06:27.751Z,99351.61
2023-03-15T08:08:57.720Z,99333.83
2023-03-15T08:11:26.212Z,99322.75
2023-03-15T08:14:00.352Z,99334.48
2023-03-15T08:16:29.304Z,99345.54
2023-03-15T08:19:07.925Z,99353.99
2023-03-15T08:21:39.130Z,99367.98
2023-03-15T08:24:08.284Z,99381.80
2023-03-15T08:26:43.572Z,99388.41
2023-03-15T08:29:12.860Z,99396.11
2023-03-15T08:31:41.949Z,99405.41
2023-03-15T08:34:10.399Z,99396.46
2023-03-15T08:36:49.824Z,99405.01
2023-03-15T08:39:20.400Z,99390.84
2023-03-15T08:41:50.681Z,99393.96
2023-03-15T08:44:19.684Z,99397.02
2023-03-15T08:46:48.694Z,99414.45
2023-03-15T08:49:17.155Z,99420.45
2023-03-15T08:51:48.172Z,99425.89
2023-03-15T08:54:17.736Z,99442.01
2023-03-15T08:56:50.458Z,99470.05
2023-03-15T08:59:29.127Z,99478.63
2023-03-15T09:02:01.070Z,99485.27
2023-03-15T09:04:32.145Z,99491.73
2023-03-15T09:07:00.900Z,99496.22
2023-03-15T09:09:30.828Z,99498.04
2023-03-15T09:11:59.821Z,99498.35
2023-03-15T09:14:28.598Z,99504.98
2023-03-15T09:16:57.540Z,99510.70
2023-03-15T09:19:26.296Z,99525.16
2023-03-15T09:21:55.865Z,99532.23
2023-03-15T09:24:37.652Z,99533.16
2023-03-15T09:27:06.519Z,99531.94
2023-03-15T09:29:38.801Z,99532.20
2023-03-15T09:32:15.863Z,99538.86
2023-03-15T09:34:50.009Z,99537.45
2023-03-15T09:37:18.807Z,99532.09
2023-03-15T09:39:52.384Z,99547.02
2023-03-15T09:42:34.695Z,99556.70
2023-03-15T09:45:19.217Z,99556.62
2023-03-15T09:48:06.234Z,99553.83
2023-03-15T09:50:47.432Z,99540.99
2023-03-15T09:53:24.960Z,99538.89
2023-03-15T09:55:53.488Z,99542.92
2023-03-15T09:58:24.261Z,99535.29
2023-03-15T10:00:56.082Z,99537.05
2023-03-15T10:03:39.468Z,99540.40
2023-03-15T10:06:16.608Z,99534.64
2023-03-15T10:08:47.278Z,99528.11
2023-03-15T10:11:16.479Z,99522.67
2023-03-15T10:14:07.834Z,99528.16
2023-03-15T10:16:50.288Z,99532.55
2023-03-15T10:19:49.712Z,99533.25
2023-03-15T10:22:18.559Z,99527.67
2023-03-15T10:25:31.880Z,99525.30
2023-03-15T10:28:04.780Z,99519.55
2023-03-15T10:30:35.527Z,99507.05
2023-03-15T10:33:19.323Z,99509.27
2023-03-15T10:35:48.998Z,99509.22
2023-03-15T10:38:21.089Z,99508.89
2023-03-15T10:40:59.626Z,99512.09
2023-03-15T10:43:41.299Z,99516.11
2023-03-15T10:46:25.015Z,99508.52
2023-03-15T10:48:59.695Z,99502.09
2023-03-15T10:51:34.926Z,99495.33
2023-03-15T10:54:20.682Z,99492.77
2023-03-15T10:57:07.504Z,99483.75
2023-03-15T10:59:36.366Z,99474.96
2023-03-15T11:02:14.304Z,99474.68
2023-03-15T11:04:49.751Z,99478.84
2023-03-15T11:07:18.765Z,99483.37
2023-03-15T11:09:55.852Z,99483.77
2023-03-15T11:12:29.798Z,99481.76
2023-03-15T11:15:14.888Z,99476.67
2023-03-15T11:17:46.300Z,99468.18
2023-03-15T11:20:31.839Z,99462.73
2023-03-15T11:23:42.518Z,99463.02
2023-03-15T11:26:33.341Z,99460.27
2023-03-15T11:29:14.684Z,99461.01
2023-03-15T11:31:47.820Z,99472.08
2023-03-15T11:34:18.024Z,99479.29
2023-03-15T11:36:55.691Z,99486.42
2023-03-15T11:39:40.436Z,99481.42
2023-03-15T11:42:35.527Z,99477.17
2023-03-15T11:45:40.476Z,99475.28
2023-03-15T11:48:42.692Z,99479.58
2023-03-15T11:51:11.759Z,99478.58
2023-03-15T11:53:54.540Z,99480.59
2023-03-15T11:56:34.743Z,99477.98
2023-03-15T11:59:13.428Z,99477.18
2023-03-15T12:01:50.410Z,99474.77
2023-03-15T12:04:25.160Z,99484.08
2023-03-15T12:06:57.230Z,99476.16
2023-03-15T12:09:32.685Z,99476.83
2023-03-15T12:12:06.968Z,99471.92
2023-03-15T12:14:36.585Z,99466.63
2023-03-15T12:17:24.233Z,99469.19
2023-03-15T12:20:21.391Z,99462.36
2023-03-15T12:22:58.290Z,99451.80
2023-03-15T12:25:58.101Z,99450.95
2023-03-15T12:28:39.820Z,99454.63
2023-03-15T12:31:13.366Z,99456.15
2023-03-15T12:34:01.822Z,99453.00
2023-03-15T12:36:38.237Z,99451.92
2023-03-15T12:39:09.877Z,99451.80
2023-03-15T12:41:47.087Z,99453.51
2023-03-15T12:44:33.031Z,99447.16
2023-03-15T12:47:11.776Z,99443.67
2023-03-15T12:49:43.043Z,99447.56
2023-03-15T12:52:12.322Z,99447.00
2023-03-15T12:54:51.981Z,99451.97
2023-03-15T12:57:31.032Z,99443.20
2023-03-15T13:00:12.040Z,99442.89
2023-03-15T13:02:46.348Z,99438.19
2023-03-15T13:05:18.515Z,99438.55
2023-03-15T13:08:31.591Z,99439.16
2023-03-15T13:11:28.356Z,99439.35
2023-03-15T13:14:26.880Z,99433.15
2023-03-15T13:17:33.898Z,99436.33
2023-03-15T13:20:23.776Z,99432.59
2023-03-15T13:22:59.755Z,99427.36
2023-03-15T13:26:03.898Z,99423.10
2023-03-15T13:28:40.909Z,99412.67
2023-03-15T13:31:31.145Z,99405.13
2023-03-15T13:34:16.863Z,99393.01
2023-03-15T13:36:48.240Z,99384.83
2023-03-15T13:39:27.489Z,99375.66
2023-03-15T13:41:59.938Z,99374.48
2023-03-15T13:44:29.214Z,99364.61
2023-03-15T13:46:59.275Z,99353.94
2023-03-15T13:49:32.836Z,99345.31
2023-03-15T13:52:14.512Z,99344.52
2023-03-15T13:54:46.269Z,99342.48
2023-03-15T13:57:19.668Z,99340.17
2023-03-15T14:00:04.304Z,99336.72
2023-03-15T14:02:46.315Z,99337.91
2023-03-15T14:05:36.938Z,99334.65
2023-03-15T14:08:23.342Z,99335.27
2023-03-15T14:11:07.191Z,99338.44
2023-03-15T14:13:47.494Z,99338.83
2023-03-15T14:16:30.924Z,99333.66
2023-03-15T14:19:21.469Z,99332.32
2023-03-15T14:21:53.889Z,99334.52
2023-03-15T14:24:35.022Z,99334.69
2023-03-15T14:27:14.881Z,99335.46
2023-03-15T14:30:17.503Z,99333.69
2023-03-15T14:32:54.414Z,99334.48
2023-03-15T14:35:42.743Z,99336.59
2023-03-15T14:38:20.147Z,99333.66
2023-03-15T14:40:50.217Z,99337.04
2023-03-15T14:43:18.804Z,99336.46
2023-03-15T14:45:48.079Z,99338.31
2023-03-15T14:48:29.094Z,99336.27
2023-03-15T14:50:57.930Z,99340.48
2023-03-15T14:53:28.201Z,99344.66
2023-03-15T14:55:56.747Z,99343.52
2023-03-15T14:58:25.810Z,99336.23
2023-03-15T15:00:58.296Z,99333.01
2023-03-15T15:03:38.382Z,99331.20
2023-03-15T15:06:11.650Z,99331.23
2023-03-15T15:08:46.609Z,99327.70
2023-03-15T15:11:15.162Z,99324.90
2023-03-15T15:13:45.767Z,99325.69
2023-03-15T15:16:14.657Z,99321.85
2023-03-15T15:18:43.286Z,99320.90
2023-03-15T15:21:19.099Z,99324.64
2023-03-15T15:23:57.886Z,99320.25
2023-03-15T15:26:29.550Z,99321.21
2023-03-15T15:28:59.574Z,99324.62
2023-03-15T15:31:29.636Z,99327.48
2023-03-15T15:34:04.247Z,99331.59
2023-03-15T15:36:35.817Z,99340.23
2023-03-15T15:39:07.196Z,99347.96
2023-03-15T15:41:36.103Z,99358.74
2023-03-15T15:44:19.430Z,99358.11
2023-03-15T15:46:49.048Z,99360.83
2023-03-15T15:49:18.402Z,99365.84
2023-03-15T15:51:49.128Z,99364.45
2023-03-15T15:54:26.665Z,99369.69
2023-03-15T15:57:01.218Z,99376.71
2023-03-15T15:59:31.376Z,99377.37
2023-03-15T16:02:01.930Z,99383.67
2023-03-15T16:04:33.261Z,99386.55
2023-03-15T16:07:02.778Z,99388.23
2023-03-15T16:09:32.369Z,99391.54
2023-03-15T16:12:03.093Z,99394.98
2023-03-15T16:14:34.086Z,99390.33
2023-03-15T16:17:03.165Z,99391.29
2023-03-15T16:19:31.855Z,99389.64
2023-03-15T16:22:00.630Z,99386.23
2023-03-15T16:24:31.526Z,99373.20
2023-03-15T16:27:04.129Z,99365.39
2023-03-15T16:29:37.520Z,99361.63
2023-03-15T16:32:17.605Z,99353.83
2023-03-15T16:34:52.461Z,99348.39
2023-03-15T16:37:26.165Z,99343.55
2023-03-15T16:39:57.996Z,99333.51
2023-03-15T16:42:26.743Z,99327.09
2023-03-15T16:44:55.134Z,99313.33
2023-03-15T16:47:24.155Z,99302.64
2023-03-15T16:49:55.509Z,99295.70
2023-03-15T16:52:24.293Z,99274.94
2023-03-15T16:54:52.837Z,99255.61
2023-03-15T16:57:25.553Z,99231.88
2023-03-15T16:59:55.531Z,99210.41
2023-03-15T17:02:26.004Z,99193.55
2023-03-15T17:04:54.623Z,99172.02
2023-03-15T17:07:30.389Z,99147.52
2023-03-15T17:09:59.003Z,99121.36
2023-03-15T17:12:28.069Z,99090.88
2023-03-15T17:14:59.244Z,99058.36
2023-03-15T17:17:28.490Z,99040.06
2023-03-15T17:20:12.811Z,99014.60
2023-03-15T17:22:41.904Z,98988.14
2023-03-15T17:25:11.997Z,98972.27
2023-03-15T17:27:43.370Z,98954.21
2023-03-15T17:30:20.448Z,98939.61
2023-03-15T17:32:50.094Z,98934.45
2023-03-15T17:35:19.364Z,98907.57
2023-03-15T17:37:48.153Z,98886.55
2023-03-15T17:40:22.139Z,98862.23
2023-03-15T17:42:51.844Z,98846.49
2023-03-15T17:45:29.858Z,98829.58
2023-03-15T17:47:58.589Z,98815.05
2023-03-15T17:50:28.969Z,98801.27
2023-03-15T17:53:18.084Z,98787.97
2023-03-15T17:55:48.117Z,98768.20
2023-03-15T17:58:21.270Z,98746.85
2023-03-15T18:00:51.235Z,98734.37
2023-03-15T18:03:19.703Z,98724.92
2023-03-15T18:05:48.081Z,98715.30
2023-03-15T18:08:19.462Z,98702.72
2023-03-15T18:10:50.883Z,98695.62
2023-03-15T18:13:21.720Z,98682.67
2023-03-15T18:15:53.130Z,98673.55
2023-03-15T18:18:22.027Z,98660.16
2023-03-15T18:20:50.902Z,98646.77
2023-03-15T18:23:25.011Z,98644.34
2023-03-15T18:25:53.696Z,98648.24
2023-03-15T18:28:22.347Z,98650.92
2023-03-15T18:30:50.778Z,98648.12
2023-03-15T18:33:19.383Z,98637.44
2023-03-15T18:35:52.070Z,98631.38
2023-03-15T18:38:21.832Z,98620.58
2023-03-15T18:40:52.003Z,98612.13
2023-03-15T18:43:23.983Z,98601.42
2023-03-15T18:45:52.889Z,98580.41
2023-03-15T18:48:34.236Z,98562.91
2023-03-15T18:51:12.454Z,98543.38
2023-03-15T18:53:41.988Z,98525.39
2023-03-15T18:56:22.416Z,98512.69
2023-03-15T18:58:51.371Z,98503.98
2023-03-15T19:01:24.945Z,98496.23
2023-03-15T19:03:54.119Z,98488.30
2023-03-15T19:06:28.668Z,98482.26
2023-03-15T19:08:57.618Z,98476.95
2023-03-15T19:11:27.209Z,98471.54
2023-03-15T19:13:55.666Z,98460.46
2023-03-15T19:16:24.834Z,98444.41
2023-03-15T19:18:53.776Z,98435.61
2023-03-15T19:21:27.997Z,98428.23
2023-03-15T19:23:58.255Z,98423.45
2023-03-15T19:26:26.805Z,98424.09
2023-03-15T19:28:56.720Z,98419.40
2023-03-15T19:31:25.463Z,98405.19
2023-03-15T19:33:59.628Z,98386.23
2023-03-15T19:36:28.074Z,98373.45
2023-03-15T19:38:56.498Z,98375.87
2023-03-15T19:41:27.241Z,98371.70
2023-03-15T19:43:56.290Z,98350.11
2023-03-15T19:46:30.941Z,98342.29
2023-03-15T19:48:59.401Z,98343.98
2023-03-15T19:51:28.381Z,98339.98
2023-03-15T19:53:57.259Z,98326.04
2023-03-15T19:56:25.933Z,98322.70
2023-03-15T19:58:56.430Z,98319.54
2023-03-15T20:01:25.203Z,98323.66
2023-03-15T20:03:53.659Z,98321.95
2023-03-15T20:06:22.226Z,98319.52
2023-03-15T20:08:51.268Z,98308.83
2023-03-15T20:11:26.365Z,98298.20
2023-03-15T20:13:55.663Z,98293.66
2023-03-15T20:16:24.369Z,98305.44
2023-03-15T20:18:56.882Z,98322.22
2023-03-15T20:21:26.057Z,98314.17
2023-03-15T20:23:54.641Z,98315.98
2023-03-15T20:26:25.374Z,98317.55
2023-03-15T20:28:54.080Z,98323.90
2023-03-15T20:31:23.816Z,98343.59
2023-03-15T20:33:53.858Z,98349.39
2023-03-15T20:36:22.595Z,98356.20
2023-03-15T20:38:51.243Z,98360.98
2023-03-15T20:41:19.808Z,98366.77
2023-03-15T20:43:49.346Z,98362.52
2023-03-15T20:46:19.625Z,98365.91
2023-03-15T20:48:48.100Z,98350.29
2023-03-15T20:51:17.067Z,98353.40
2023-03-15T20:53:45.591Z,98359.48
2023-03-15T20:56:18.102Z,98354.73
2023-03-15T20:58:47.830Z,98351.98
2023-03-15T21:01:21.284Z,98355.95
2023-03-15T21:03:53.322Z,98347.59
2023-03-15T21:06:22.074Z,98339.32
2023-03-15T21:08:50.519Z,98346.34
2023-03-15T21:11:19.315Z,98354.95
2023-03-15T21:13:47.827Z,98363.11
2023-03-15T21:16:16.862Z,98369.92
2023-03-15T21:18:51.940Z,98372.30
2023-03-15T21:21:25.021Z,98376.15
2023-03-15T21:23:54.554Z,98375.60
2023-03-15T21:26:23.400Z,98385.63
2023-03-15T21:28:57.655Z,98385.73
2023-03-15T21:31:26.141Z,98392.27
2023-03-15T21:33:54.647Z,98388.55
2023-03-15T21:36:23.283Z,98397.42
2023-03-15T21:38:51.705Z,98397.52
2023-03-15T21:41:22.794Z,98390.96
2023-03-15T21:43:51.635Z,98391.42
2023-03-15T21:46:20.319Z,98391.25
2023-03-15T21:48:48.974Z,98395.63
2023-03-15T21:51:17.671Z,98395.06
2023-03-15T21:53:51.793Z,98415.25
2023-03-15T21:56:20.337Z,98431.70
2023-03-15T21:58:49.183Z,98420.16
2023-03-15T22:01:18.416Z,98436.52
2023-03-15T22:03:47.372Z,98454.67
2023-03-15T22:06:16.987Z,98466.21
2023-03-15T22:08:48.424Z,98503.41
2023-03-15T22:11:16.857Z,98547.36
2023-03-15T22:13:45.968Z,98585.91
2023-03-15T22:16:14.538Z,98632.52
2023-03-15T22:18:49.657Z,98649.66
2023-03-15T22:21:18.570Z,98707.58
2023-03-15T22:23:47.254Z,98756.30
2023-03-15T22:26:17.830Z,98831.43
2023-03-15T22:28:48.678Z,98928.83
2023-03-15T22:31:17.429Z,99023.18
2023-03-15T22:33:46.578Z,99075.40
2023-03-15T22:36:17.503Z,98999.27
2023-03-15T22:38:50.356Z,98883.90
2023-03-15T22:41:21.083Z,98858.23
2023-03-15T22:43:49.593Z,98848.94
2023-03-15T22:46:18.811Z,98849.30
2023-03-15T22:48:47.885Z,98845.21
2023-03-15T22:51:16.798Z,98835.23
2023-03-15T22:53:45.618Z,98824.80
2023-03-15T22:56:14.774Z,98819.41
2023-03-15T22:58:43.285Z,98825.27
2023-03-15T23:01:11.874Z,98832.45
2023-03-15T23:03:42.471Z,98842.77
2023-03-15T23:06:11.389Z,98857.55
2023-03-15T23:08:39.920Z,98861.74
2023-03-15T23:11:09.298Z,98877.52
2023-03-15T23:13:37.820Z,98883.02
2023-03-15T23:16:10.729Z,98893.47
2023-03-15T23:18:40.292Z,98913.66
2023-03-15T23:21:10.907Z,98931.52
2023-03-15T23:23:39.480Z,98946.34
2023-03-15T23:26:08.461Z,98949.15
2023-03-15T23:28:37.616Z,98949.11
2023-03-15T23:31:07.347Z,98947.52
2023-03-15T23:33:36.214Z,98949.09
2023-03-15T23:36:06.046Z,98954.98
2023-03-15T23:38:35.010Z,98939.19
2023-03-15T23:41:09.344Z,98931.30
2023-03-15T23:43:38.741Z,98931.27
2023-03-15T23:46:07.368Z,98924.84
2023-03-15T23:48:36.648Z,98933.04
2023-03-15T23:51:06.246Z,98954.98
2023-03-15T23:53:35.749Z,98958.48
2023-03-15T23:56:05.562Z,98967.77
2023-03-15T23:58:34.006Z,98972.89
